createdAt,value
2022-09-18T00:00:19.798Z,1.63
2022-09-18T00:02:52.538Z,0.90
2022-09-18T00:05:21.211Z,0.93
2022-09-18T00:07:49.902Z,1.00
2022-09-18T00:10:18.617Z,1.63
2022-09-18T00:12:47.203Z,0.80
2022-09-18T00:15:15.784Z,1.50
2022-09-18T00:17:44.277Z,1.30
2022-09-18T00:20:14.690Z,1.30
2022-09-18T00:22:43.201Z,1.37
2022-09-18T00:25:11.737Z,1.90
2022-09-18T00:27:40.310Z,2.00
2022-09-18T00:30:10.522Z,2.80
2022-09-18T00:32:39.394Z,1.30
2022-09-18T00:35:09.634Z,1.27
2022-09-18T00:37:50.633Z,1.57
2022-09-18T00:40:41.300Z,1.90
2022-09-18T00:43:25.289Z,2.47
2022-09-18T00:46:19.134Z,1.73
2022-09-18T00:49:01.696Z,1.90
2022-09-18T00:51:32.510Z,2.33
2022-09-18T00:54:09.772Z,2.23
2022-09-18T00:56:41.459Z,2.13
2022-09-18T00:59:15.847Z,2.80
2022-09-18T01:01:44.531Z,2.00
2022-09-18T01:04:14.006Z,1.77
2022-09-18T01:06:48.764Z,1.97
2022-09-18T01:09:28.827Z,1.73
2022-09-18T01:12:05.901Z,1.67
2022-09-18T01:14:42.275Z,1.90
2022-09-18T01:17:16.648Z,1.77
2022-09-18T01:20:08.480Z,2.10
2022-09-18T01:22:59.017Z,1.90
2022-09-18T01:25:37.376Z,1.47
2022-09-18T01:28:18.943Z,1.87
2022-09-18T01:30:49.839Z,1.93
2022-09-18T01:33:26.934Z,1.57
2022-09-18T01:35:58.565Z,2.13
2022-09-18T01:38:34.111Z,1.70
2022-09-18T01:41:06.772Z,1.60
2022-09-18T01:43:39.532Z,1.10
2022-09-18T01:46:14.460Z,1.17
2022-09-18T01:48:46.321Z,1.53
2022-09-18T01:51:20.591Z,1.60
2022-09-18T01:53:52.729Z,1.90
2022-09-18T01:56:26.836Z,1.60
2022-09-18T01:59:02.036Z,1.23
2022-09-18T02:01:34.042Z,2.00
2022-09-18T02:04:07.393Z,1.53
2022-09-18T02:06:40.830Z,1.80
2022-09-18T02:09:12.019Z,1.77
2022-09-18T02:11:45.518Z,1.73
2022-09-18T02:14:19.412Z,2.20
2022-09-18T02:16:50.179Z,2.20
2022-09-18T02:19:22.417Z,1.97
2022-09-18T02:21:53.522Z,2.93
2022-09-18T02:24:25.610Z,1.93
2022-09-18T02:26:55.764Z,1.63
2022-09-18T02:29:26.859Z,2.97
2022-09-18T02:31:55.563Z,2.73
2022-09-18T02:34:24.158Z,1.43
2022-09-18T02:37:05.268Z,2.73
2022-09-18T02:39:50.297Z,2.50
2022-09-18T02:42:30.995Z,2.83
2022-09-18T02:45:08.312Z,3.00
2022-09-18T02:47:50.087Z,3.20
2022-09-18T02:50:26.681Z,3.40
2022-09-18T02:53:03.915Z,1.53
2022-09-18T02:55:43.145Z,3.10
2022-09-18T02:58:18.530Z,2.23
2022-09-18T03:00:50.028Z,2.80
2022-09-18T03:03:21.745Z,2.23
2022-09-18T03:05:50.239Z,2.27
2022-09-18T03:08:19.376Z,3.00
2022-09-18T03:10:47.868Z,2.27
2022-09-18T03:13:16.487Z,2.00
2022-09-18T03:15:45.025Z,2.40
2022-09-18T03:18:15.110Z,1.77
2022-09-18T03:20:43.943Z,2.73
2022-09-18T03:23:12.485Z,2.20
2022-09-18T03:25:41.048Z,1.60
2022-09-18T03:28:09.520Z,3.07
2022-09-18T03:30:38.133Z,3.20
2022-09-18T03:33:06.697Z,3.07
2022-09-18T03:35:36.639Z,3.30
2022-09-18T03:38:05.428Z,2.83
2022-09-18T03:40:33.969Z,3.00
2022-09-18T03:43:02.786Z,3.00
2022-09-18T03:45:31.305Z,3.80
2022-09-18T03:47:59.841Z,2.97
2022-09-18T03:50:28.379Z,1.67
2022-09-18T03:52:58.268Z,3.77
2022-09-18T03:55:27.400Z,3.33
2022-09-18T03:57:57.333Z,6.67
2022-09-18T04:00:25.842Z,2.43
2022-09-18T04:02:54.423Z,3.43
2022-09-18T04:05:23.081Z,2.83
2022-09-18T04:07:51.563Z,1.97
2022-09-18T04:10:22.726Z,2.33
2022-09-18T04:12:51.270Z,3.60
2022-09-18T04:15:19.997Z,3.40
2022-09-18T04:17:48.547Z,2.37
2022-09-18T04:20:17.314Z,2.60
2022-09-18T04:22:46.017Z,2.73
2022-09-18T04:25:14.456Z,2.10
2022-09-18T04:27:44.283Z,2.40
2022-09-18T04:30:14.249Z,3.00
2022-09-18T04:32:44.471Z,2.57
2022-09-18T04:35:13.329Z,2.40
2022-09-18T04:37:43.797Z,2.40
2022-09-18T04:40:13.041Z,2.10
2022-09-18T04:42:43.045Z,1.73
2022-09-18T04:45:12.042Z,2.90
2022-09-18T04:47:40.982Z,2.47
2022-09-18T04:50:10.966Z,2.30
2022-09-18T04:52:39.444Z,2.43
2022-09-18T04:55:08.721Z,2.27
2022-09-18T04:57:37.189Z,1.93
2022-09-18T05:00:08.810Z,1.97
2022-09-18T05:02:38.877Z,2.17
2022-09-18T05:05:08.102Z,2.00
2022-09-18T05:07:36.539Z,1.90
2022-09-18T05:10:05.421Z,2.20
2022-09-18T05:12:33.885Z,2.30
2022-09-18T05:15:02.306Z,1.73
2022-09-18T05:17:32.977Z,2.27
2022-09-18T05:20:01.556Z,2.80
2022-09-18T05:22:30.962Z,2.27
2022-09-18T05:24:59.381Z,0.93
2022-09-18T05:27:27.824Z,1.77
2022-09-18T05:29:56.444Z,2.00
2022-09-18T05:32:24.901Z,2.40
2022-09-18T05:34:54.679Z,2.03
2022-09-18T05:37:23.056Z,2.33
2022-09-18T05:39:51.577Z,1.83
2022-09-18T05:42:20.034Z,2.07
2022-09-18T05:44:48.448Z,2.43
2022-09-18T05:47:16.862Z,1.90
2022-09-18T05:49:45.260Z,2.03
2022-09-18T05:52:15.063Z,2.13
2022-09-18T05:54:43.497Z,1.80
2022-09-18T05:57:11.923Z,2.10
2022-09-18T05:59:40.698Z,1.93
2022-09-18T06:02:11.617Z,2.10
2022-09-18T06:04:40.218Z,2.00
2022-09-18T06:07:08.716Z,1.70
2022-09-18T06:09:38.600Z,2.30
2022-09-18T06:12:07.626Z,1.80
2022-09-18T06:14:36.065Z,2.63
2022-09-18T06:17:04.533Z,1.57
2022-09-18T06:19:34.705Z,2.10
2022-09-18T06:22:03.223Z,2.03
2022-09-18T06:24:31.627Z,1.70
2022-09-18T06:27:01.530Z,1.30
2022-09-18T06:29:30.023Z,1.80
2022-09-18T06:31:58.489Z,2.47
2022-09-18T06:34:26.912Z,3.67
2022-09-18T06:36:55.365Z,2.30
2022-09-18T06:39:23.852Z,2.10
2022-09-18T06:41:52.399Z,1.60
2022-09-18T06:44:22.230Z,2.10
2022-09-18T06:46:50.688Z,2.43
2022-09-18T06:49:19.216Z,1.53
2022-09-18T06:51:48.624Z,1.90
2022-09-18T06:54:18.456Z,1.80
2022-09-18T06:56:49.264Z,2.00
2022-09-18T06:59:17.778Z,2.50
2022-09-18T07:01:49.008Z,1.63
2022-09-18T07:04:17.576Z,1.87
2022-09-18T07:06:46.781Z,1.50
2022-09-18T07:09:15.272Z,2.10
2022-09-18T07:11:43.751Z,2.30
2022-09-18T07:14:12.253Z,3.43
2022-09-18T07:16:40.811Z,1.33
2022-09-18T07:19:10.759Z,1.57
2022-09-18T07:21:40.060Z,1.80
2022-09-18T07:24:08.898Z,1.70
2022-09-18T07:26:37.453Z,1.00
2022-09-18T07:29:09.988Z,1.67
2022-09-18T07:31:39.373Z,2.57
2022-09-18T07:34:10.136Z,2.07
2022-09-18T07:36:38.714Z,2.13
2022-09-18T07:39:07.222Z,2.37
2022-09-18T07:41:35.729Z,2.07
2022-09-18T07:44:04.383Z,1.70
2022-09-18T07:46:32.896Z,1.70
2022-09-18T07:49:01.502Z,3.40
2022-09-18T07:51:31.298Z,1.70
2022-09-18T07:53:59.756Z,1.80
2022-09-18T07:56:28.208Z,1.63
2022-09-18T07:58:56.687Z,2.10
2022-09-18T08:01:25.661Z,1.60
2022-09-18T08:03:54.159Z,2.87
2022-09-18T08:06:22.630Z,2.03
2022-09-18T08:08:55.081Z,4.40
2022-09-18T08:11:23.873Z,2.33
2022-09-18T08:13:52.593Z,1.67
2022-09-18T08:16:21.794Z,1.90
2022-09-18T08:18:50.516Z,2.63
2022-09-18T08:21:19.814Z,1.37
2022-09-18T08:23:48.685Z,2.33
2022-09-18T08:26:22.161Z,1.73
2022-09-18T08:28:51.027Z,1.60
2022-09-18T08:31:19.594Z,2.67
2022-09-18T08:33:48.191Z,1.07
2022-09-18T08:36:16.948Z,2.27
2022-09-18T08:38:45.511Z,1.60
2022-09-18T08:41:28.304Z,2.43
2022-09-18T08:44:04.155Z,2.60
2022-09-18T08:46:39.163Z,1.40
2022-09-18T08:49:23.185Z,1.60
2022-09-18T08:51:57.309Z,2.30
2022-09-18T08:54:40.815Z,1.67
2022-09-18T08:57:16.690Z,2.17
2022-09-18T08:59:50.379Z,2.97
2022-09-18T09:02:35.523Z,2.17
2022-09-18T09:05:09.064Z,1.90
2022-09-18T09:08:02.459Z,2.70
2022-09-18T09:10:51.301Z,1.87
2022-09-18T09:13:42.635Z,2.00
2022-09-18T09:16:17.018Z,2.10
2022-09-18T09:18:56.864Z,1.70
2022-09-18T09:21:32.002Z,2.33
2022-09-18T09:24:17.205Z,1.80
2022-09-18T09:26:46.304Z,1.67
2022-09-18T09:29:20.765Z,1.90
2022-09-18T09:31:55.292Z,2.50
2022-09-18T09:34:29.319Z,1.73
2022-09-18T09:37:01.928Z,2.50
2022-09-18T09:39:37.151Z,1.93
2022-09-18T09:42:12.314Z,2.20
2022-09-18T09:44:50.149Z,2.70
2022-09-18T09:47:30.381Z,2.70
2022-09-18T09:50:13.099Z,2.10
2022-09-18T09:52:43.612Z,2.00
2022-09-18T09:55:25.681Z,1.63
2022-09-18T09:58:12.470Z,2.70
2022-09-18T10:00:48.341Z,1.30
2022-09-18T10:03:33.592Z,2.33
2022-09-18T10:06:11.339Z,2.30
2022-09-18T10:08:46.575Z,1.93
2022-09-18T10:11:16.341Z,1.80
2022-09-18T10:13:49.954Z,1.97
2022-09-18T10:16:23.541Z,1.37
2022-09-18T10:18:52.280Z,1.40
2022-09-18T10:21:23.050Z,1.90
2022-09-18T10:23:55.872Z,1.60
2022-09-18T10:26:27.548Z,1.60
2022-09-18T10:28:56.003Z,1.43
2022-09-18T10:31:45.810Z,1.70
2022-09-18T10:34:32.752Z,2.40
2022-09-18T10:37:01.838Z,2.07
2022-09-18T10:39:32.068Z,1.97
2022-09-18T10:42:01.583Z,1.70
2022-09-18T10:44:31.634Z,1.70
2022-09-18T10:47:06.376Z,1.93
2022-09-18T10:49:37.335Z,1.20
2022-09-18T10:52:31.976Z,1.97
2022-09-18T10:55:03.328Z,1.50
2022-09-18T10:57:34.142Z,1.43
2022-09-18T11:00:05.230Z,1.20
2022-09-18T11:02:42.201Z,1.57
2022-09-18T11:05:18.665Z,1.23
2022-09-18T11:07:49.921Z,1.37
2022-09-18T11:10:19.819Z,1.27
2022-09-18T11:12:54.984Z,1.40
2022-09-18T11:15:27.176Z,0.80
2022-09-18T11:17:59.005Z,1.90
2022-09-18T11:20:30.067Z,1.20
2022-09-18T11:23:16.984Z,1.37
2022-09-18T11:25:46.186Z,0.70
2022-09-18T11:28:24.200Z,1.40
2022-09-18T11:31:01.122Z,1.80
2022-09-18T11:33:34.220Z,1.00
2022-09-18T11:36:05.672Z,1.83
2022-09-18T11:38:39.576Z,4.53
2022-09-18T11:41:08.759Z,2.60
2022-09-18T11:43:39.771Z,1.90
2022-09-18T11:46:19.458Z,1.70
2022-09-18T11:48:53.495Z,1.23
2022-09-18T11:51:27.718Z,1.43
2022-09-18T11:54:02.739Z,1.20
2022-09-18T11:56:38.706Z,1.00
2022-09-18T11:59:13.031Z,1.57
2022-09-18T12:01:44.638Z,1.43
2022-09-18T12:04:18.593Z,1.80
2022-09-18T12:06:56.084Z,1.40
2022-09-18T12:09:33.930Z,1.77
2022-09-18T12:12:08.594Z,1.30
2022-09-18T12:14:42.142Z,1.10
2022-09-18T12:17:18.986Z,1.27
2022-09-18T12:19:52.990Z,1.47
2022-09-18T12:22:25.640Z,1.80
2022-09-18T12:24:55.520Z,1.20
2022-09-18T12:27:33.492Z,1.60
2022-09-18T12:30:09.158Z,1.30
2022-09-18T12:33:04.883Z,1.47
2022-09-18T12:35:53.078Z,1.20
2022-09-18T12:38:40.368Z,1.20
2022-09-18T12:41:27.539Z,1.17
2022-09-18T12:44:37.054Z,0.80
2022-09-18T12:47:18.358Z,1.13
2022-09-18T12:50:06.753Z,1.10
2022-09-18T12:53:06.295Z,1.43
2022-09-18T12:55:50.526Z,1.03
2022-09-18T12:58:43.210Z,1.40
2022-09-18T13:01:19.645Z,1.30
2022-09-18T13:03:52.492Z,1.37
2022-09-18T13:06:32.587Z,1.37
2022-09-18T13:09:08.994Z,1.37
2022-09-18T13:11:42.751Z,1.20
2022-09-18T13:14:17.111Z,1.53
2022-09-18T13:16:51.761Z,1.73
2022-09-18T13:19:24.748Z,1.40
2022-09-18T13:21:54.373Z,2.00
2022-09-18T13:24:28.510Z,1.40
2022-09-18T13:26:58.471Z,1.83
2022-09-18T13:29:50.121Z,1.00
2022-09-18T13:32:20.733Z,1.20
2022-09-18T13:34:55.851Z,1.90
2022-09-18T13:37:26.656Z,1.60
2022-09-18T13:40:10.110Z,2.43
2022-09-18T13:42:42.415Z,1.20
2022-09-18T13:45:20.612Z,0.80
2022-09-18T13:48:04.913Z,1.17
2022-09-18T13:50:35.552Z,1.00
2022-09-18T13:53:05.957Z,0.80
2022-09-18T13:55:50.298Z,1.50
2022-09-18T13:58:52.698Z,1.10
2022-09-18T14:01:55.884Z,1.20
2022-09-18T14:04:50.632Z,1.07
2022-09-18T14:07:50.771Z,1.30
2022-09-18T14:10:27.306Z,1.43
2022-09-18T14:13:29.782Z,0.97
2022-09-18T14:16:03.202Z,1.80
2022-09-18T14:18:35.276Z,1.00
2022-09-18T14:21:20.566Z,0.90
2022-09-18T14:24:03.203Z,0.97
2022-09-18T14:27:16.246Z,1.10
2022-09-18T14:29:48.457Z,1.00
2022-09-18T14:32:19.930Z,0.70
2022-09-18T14:34:48.648Z,0.63
2022-09-18T14:37:29.891Z,1.37
2022-09-18T14:39:59.049Z,1.00
2022-09-18T14:42:33.051Z,1.07
2022-09-18T14:45:19.866Z,0.70
2022-09-18T14:47:49.990Z,0.77
2022-09-18T14:50:30.793Z,1.07
2022-09-18T14:53:00.593Z,0.60
2022-09-18T14:55:34.159Z,0.70
2022-09-18T14:58:06.953Z,0.97
2022-09-18T15:00:39.323Z,0.90
2022-09-18T15:03:15.136Z,1.00
2022-09-18T15:05:43.637Z,1.10
2022-09-18T15:08:18.754Z,1.40
2022-09-18T15:10:50.549Z,0.80
2022-09-18T15:13:20.724Z,0.97
2022-09-18T15:15:59.611Z,1.00
2022-09-18T15:18:30.349Z,0.87
2022-09-18T15:21:01.791Z,1.00
2022-09-18T15:23:34.063Z,1.20
2022-09-18T15:26:06.963Z,1.30
2022-09-18T15:28:37.813Z,2.20
2022-09-18T15:31:09.947Z,2.10
2022-09-18T15:33:49.490Z,3.10
2022-09-18T15:36:28.249Z,3.90
2022-09-18T15:38:58.368Z,4.70
2022-09-18T15:41:37.629Z,2.27
2022-09-18T15:44:07.467Z,2.40
2022-09-18T15:46:38.302Z,1.43
2022-09-18T15:49:30.148Z,2.47
2022-09-18T15:51:59.226Z,2.00
2022-09-18T15:54:28.691Z,3.90
2022-09-18T15:57:00.034Z,4.90
2022-09-18T15:59:34.380Z,2.60
2022-09-18T16:02:20.599Z,2.47
2022-09-18T16:04:49.566Z,2.13
2022-09-18T16:07:22.892Z,2.00
2022-09-18T16:09:52.044Z,2.17
2022-09-18T16:12:35.336Z,1.73
2022-09-18T16:15:16.856Z,1.47
2022-09-18T16:18:04.948Z,1.60
2022-09-18T16:20:39.270Z,1.37
2022-09-18T16:23:20.828Z,1.23
2022-09-18T16:26:13.000Z,1.30
2022-09-18T16:28:46.410Z,1.00
2022-09-18T16:31:18.263Z,1.00
2022-09-18T16:34:01.407Z,4.20
2022-09-18T16:36:32.919Z,3.90
2022-09-18T16:39:02.892Z,2.33
2022-09-18T16:41:32.924Z,3.40
2022-09-18T16:44:02.149Z,2.50
2022-09-18T16:46:33.683Z,3.00
2022-09-18T16:49:03.922Z,3.73
2022-09-18T16:51:32.380Z,8.30
2022-09-18T16:54:03.559Z,4.00
2022-09-18T16:56:36.916Z,7.03
2022-09-18T16:59:08.677Z,2.93
2022-09-18T17:02:02.445Z,4.70
2022-09-18T17:04:30.665Z,7.07
2022-09-18T17:07:01.024Z,4.63
2022-09-18T17:09:32.673Z,2.53
2022-09-18T17:12:01.393Z,2.97
2022-09-18T17:14:29.955Z,2.03
2022-09-18T17:16:58.758Z,0.90
2022-09-18T17:19:27.388Z,1.47
2022-09-18T17:21:57.694Z,1.27
2022-09-18T17:24:28.000Z,1.10
2022-09-18T17:26:56.499Z,1.10
2022-09-18T17:29:25.351Z,0.90
2022-09-18T17:31:54.128Z,1.20
2022-09-18T17:34:24.595Z,1.03
2022-09-18T17:36:53.183Z,0.97
2022-09-18T17:39:24.434Z,0.73
2022-09-18T17:41:52.951Z,0.97
2022-09-18T17:44:23.774Z,0.90
2022-09-18T17:46:53.445Z,1.40
2022-09-18T17:49:22.813Z,1.07
2022-09-18T17:51:51.605Z,1.00
2022-09-18T17:54:20.185Z,0.80
2022-09-18T17:56:50.201Z,1.00
2022-09-18T17:59:18.963Z,1.20
2022-09-18T18:01:48.697Z,1.00
2022-09-18T18:04:20.400Z,1.07
2022-09-18T18:06:50.067Z,0.80
2022-09-18T18:09:18.809Z,1.00
2022-09-18T18:11:48.204Z,1.00
2022-09-18T18:14:18.032Z,1.70
2022-09-18T18:16:50.804Z,0.83
2022-09-18T18:19:21.239Z,0.80
2022-09-18T18:21:49.744Z,0.97
2022-09-18T18:24:19.170Z,1.13
2022-09-18T18:26:48.459Z,0.97
2022-09-18T18:29:21.015Z,0.90
2022-09-18T18:31:50.591Z,0.83
2022-09-18T18:34:22.196Z,1.90
2022-09-18T18:36:52.645Z,1.20
2022-09-18T18:39:21.304Z,2.00
2022-09-18T18:41:50.368Z,1.33
2022-09-18T18:44:20.278Z,2.23
2022-09-18T18:46:50.113Z,1.17
2022-09-18T18:49:19.008Z,1.00
2022-09-18T18:51:50.148Z,1.13
2022-09-18T18:54:22.634Z,1.00
2022-09-18T18:56:51.662Z,2.30
2022-09-18T18:59:23.677Z,1.27
2022-09-18T19:01:55.752Z,1.23
2022-09-18T19:04:24.703Z,1.50
2022-09-18T19:06:53.946Z,3.47
2022-09-18T19:09:24.985Z,1.20
2022-09-18T19:11:55.310Z,1.77
2022-09-18T19:14:28.011Z,1.50
2022-09-18T19:16:57.035Z,1.73
2022-09-18T19:19:28.526Z,1.40
2022-09-18T19:21:59.477Z,1.90
2022-09-18T19:24:29.908Z,1.60
2022-09-18T19:26:58.895Z,1.23
2022-09-18T19:29:30.604Z,1.20
2022-09-18T19:31:59.528Z,1.50
2022-09-18T19:34:28.172Z,1.70
2022-09-18T19:37:13.508Z,1.07
2022-09-18T19:42:34.012Z,1.10
2022-09-18T19:45:06.344Z,0.97
2022-09-18T19:47:39.967Z,1.00
2022-09-18T19:50:17.357Z,1.17
2022-09-18T19:52:50.748Z,0.90
2022-09-18T19:55:21.710Z,1.20
2022-09-18T19:57:51.294Z,1.00
2022-09-18T20:00:21.927Z,1.20
2022-09-18T20:02:50.596Z,1.47
2022-09-18T20:05:19.719Z,1.50
2022-09-18T20:07:51.117Z,1.10
2022-09-18T20:10:19.836Z,1.30
2022-09-18T20:12:48.652Z,1.30
2022-09-18T20:15:17.233Z,1.20
2022-09-18T20:17:47.103Z,1.10
2022-09-18T20:20:16.602Z,1.20
2022-09-18T20:22:47.569Z,1.40
2022-09-18T20:25:16.404Z,1.30
2022-09-18T20:27:44.878Z,1.10
2022-09-18T20:30:13.915Z,1.17
2022-09-18T20:32:42.424Z,0.93
2022-09-18T20:35:12.614Z,1.33
2022-09-18T20:37:41.457Z,1.10
2022-09-18T20:40:12.861Z,1.30
2022-09-18T20:42:41.476Z,0.80
2022-09-18T20:45:10.411Z,1.10
2022-09-18T20:47:39.441Z,1.20
2022-09-18T20:50:09.825Z,0.90
2022-09-18T20:52:42.995Z,0.90
2022-09-18T20:55:13.251Z,1.00
2022-09-18T20:57:43.810Z,1.17
2022-09-18T21:00:13.901Z,1.03
2022-09-18T21:02:49.250Z,0.90
2022-09-18T21:05:17.924Z,1.00
2022-09-18T21:07:48.238Z,1.17
2022-09-18T21:10:17.929Z,0.70
2022-09-18T21:12:47.449Z,0.93
2022-09-18T21:15:16.422Z,1.00
2022-09-18T21:17:45.034Z,1.60
2022-09-18T21:20:13.910Z,1.00
2022-09-18T21:23:04.665Z,1.10
2022-09-18T21:25:33.711Z,1.00
2022-09-18T21:28:05.915Z,1.20
2022-09-18T21:30:34.697Z,0.97
2022-09-18T21:33:03.729Z,1.03
2022-09-18T21:35:32.393Z,1.30
2022-09-18T21:38:03.633Z,1.03
2022-09-18T21:40:32.489Z,1.40
2022-09-18T21:43:03.091Z,0.70
2022-09-18T21:45:31.709Z,0.90
2022-09-18T21:48:00.196Z,1.20
2022-09-18T21:50:28.712Z,0.83
2022-09-18T21:52:57.289Z,1.10
2022-09-18T21:55:27.148Z,1.27
2022-09-18T21:57:56.011Z,1.00
2022-09-18T22:00:24.495Z,0.60
2022-09-18T22:02:54.921Z,1.17
2022-09-18T22:05:23.454Z,1.37
2022-09-18T22:07:55.013Z,0.70
2022-09-18T22:10:23.825Z,0.80
2022-09-18T22:12:55.209Z,1.00
2022-09-18T22:15:23.696Z,1.30
2022-09-18T22:17:52.344Z,0.80
2022-09-18T22:20:21.058Z,0.80
2022-09-18T22:22:49.516Z,1.00
2022-09-18T22:25:18.015Z,0.80
2022-09-18T22:27:46.601Z,0.77
2022-09-18T22:30:16.694Z,1.20
2022-09-18T22:32:45.194Z,0.97
2022-09-18T22:35:13.851Z,0.87
2022-09-18T22:37:42.347Z,0.80
2022-09-18T22:40:11.392Z,1.20
2022-09-18T22:42:39.859Z,0.80
2022-09-18T22:45:09.080Z,0.83
2022-09-18T22:47:38.893Z,1.20
2022-09-18T22:50:08.899Z,1.00
2022-09-18T22:52:37.961Z,0.70
2022-09-18T22:55:06.762Z,0.83
2022-09-18T22:57:35.434Z,0.97
2022-09-18T23:00:04.984Z,1.00
2022-09-18T23:02:33.517Z,0.90
2022-09-18T23:05:03.420Z,0.87
2022-09-18T23:07:31.861Z,1.10
2022-09-18T23:10:00.332Z,1.10
2022-09-18T23:12:28.782Z,0.80
2022-09-18T23:14:57.253Z,1.03
2022-09-18T23:17:25.690Z,1.60
2022-09-18T23:19:54.129Z,1.17
2022-09-18T23:22:23.934Z,0.80
2022-09-18T23:24:52.809Z,0.90
2022-09-18T23:27:21.213Z,0.80
2022-09-18T23:29:50.802Z,0.80
2022-09-18T23:32:19.327Z,1.20
2022-09-18T23:34:47.756Z,1.10
2022-09-18T23:37:16.503Z,1.63
2022-09-18T23:39:46.358Z,0.73
2022-09-18T23:42:14.813Z,1.60
2022-09-18T23:44:43.339Z,1.17
2022-09-18T23:47:11.791Z,1.27
2022-09-18T23:49:40.349Z,1.23
2022-09-18T23:52:08.819Z,0.90
2022-09-18T23:54:37.298Z,1.17
2022-09-18T23:57:07.276Z,1.17
2022-09-18T23:59:35.672Z,0.87
